Duluth International Airport
KDLH : now visible

Airfield :











YOU CAN JOIN US ON...

 
LOGIN :

Register | Disclaimer

   EN    FR    IT 

 









Legend :    VFR   Marginal VFR   IFR   Intensive IFR   Very Intensive IFR
Visi :
Ceiling :
>= 8 km
>= 3000ft
5 to 8 km
1000 to 3000 ft
1500m to 5 km
500 to 1000 ft
800 to 1500m
200 to 500 ft
< 800m
< 200 ft
Symbols :   Thunderstorms  Fog  Heavy snow  Heavy precipitations  Wind > 20 kt







- Airport Elevation : 1428 ft
- IATA code : DLH


KDLH - Duluth International

CURRENT METAR :
  • 180555Z 01006KT 9SM -SN OVC019 M14/M17 A3020 RMK AO2 SNB36 SLP261 P0000 60000 I6000 T11441167 11100 21178 410721178 51016 /

EXPIRED METARs :
  • 180539Z 36006KT 10SM -SN BKN016 M14/M16 A3019 RMK AO2 SNB36 P0000 T11391161 $
  • 180455Z 36004KT 9SM SCT011 M14/M16 A3018 RMK AO2 SNB13E55 SLP254 P0000 T11391161 $
  • 180355Z 01004KT 10SM FEW110 M13/M16 A3017 RMK AO2 SLP250 I1000 T11331161 $

TAF KDLH
Valid from the 18 at 06:00 until the 19 at 06:00 UTC


180523Z 1806/1906 VRB04KT P6SM VCSH SCT100
TEMPO 1806/1808 6SM -SN BKN018
FM181300 VRB03KT P6SM SCT200
KZMP FIR / North America



MET'MAP, your aeronautical weather chart ! - Copyright ORBIFLY December 2007 - Disclaimer

ORBIFLY MET'MAP TEAM :

Programming & Development : Alexandra Zaïnal
Concept & Development : Baudouin d'Aumeries
Co-Development & Prog : Marc-Olivier Méhu
Technical & hardware support : Manuel Goepfert

Contact : metmap@orbifly.com




SOURCES & CREDITS :

   NOAA       Earth
Advisory